sensor_id;sensor_type;location;lat;lon;timestamp;temperature;humidity
15160;DHT22;7680;48.800;9.680;2024-01-15T00:01:42;-2.60;99.90
15160;DHT22;7680;48.800;9.680;2024-01-15T00:06:46;-2.60;99.90
15160;DHT22;7680;48.800;9.680;2024-01-15T00:11:50;-2.60;99.90
15160;DHT22;7680;48.800;9.680;2024-01-15T00:16:54;-2.60;99.90
15160;DHT22;7680;48.800;9.680;2024-01-15T00:21:57;-2.60;99.90
15160;DHT22;7680;48.800;9.680;2024-01-15T00:27:02;-2.60;99.90
15160;DHT22;7680;48.800;9.680;2024-01-15T00:32:05;-2.60;99.90
15160;DHT22;7680;48.800;9.680;2024-01-15T00:37:09;-2.60;99.90
15160;DHT22;7680;48.800;9.680;2024-01-15T00:42:13;-2.60;99.90
15160;DHT22;7680;48.800;9.680;2024-01-15T00:47:18;-2.60;99.90
15160;DHT22;7680;48.800;9.680;2024-01-15T00:52:21;-2.60;99.90
15160;DHT22;7680;48.800;9.680;2024-01-15T00:57:26;-2.60;99.90
15160;DHT22;7680;48.800;9.680;2024-01-15T01:02:29;-2.60;99.90
15160;DHT22;7680;48.800;9.680;2024-01-15T01:07:32;-2.60;99.90
15160;DHT22;7680;48.800;9.680;2024-01-15T01:12:37;-2.50;99.90
15160;DHT22;7680;48.800;9.680;2024-01-15T01:17:40;-2.60;99.90
15160;DHT22;7680;48.800;9.680;2024-01-15T01:22:43;-2.60;99.90
15160;DHT22;7680;48.800;9.680;2024-01-15T01:27:48;-2.50;99.90
15160;DHT22;7680;48.800;9.680;2024-01-15T01:32:51;-2.50;99.90
15160;DHT22;7680;48.800;9.680;2024-01-15T01:37:54;-2.40;99.90
15160;DHT22;7680;48.800;9.680;2024-01-15T01:42:58;-2.50;99.90
15160;DHT22;7680;48.800;9.680;2024-01-15T01:48:02;-2.40;99.90
15160;DHT22;7680;48.800;9.680;2024-01-15T01:53:07;-2.40;99.90
15160;DHT22;7680;48.800;9.680;2024-01-15T01:58:12;-2.40;99.90
15160;DHT22;7680;48.800;9.680;2024-01-15T02:03:16;-2.30;99.90
15160;DHT22;7680;48.800;9.680;2024-01-15T02:08:19;-2.30;99.90
15160;DHT22;7680;48.800;9.680;2024-01-15T02:13:24;-2.30;99.90
15160;DHT22;7680;48.800;9.680;2024-01-15T02:18:27;-2.20;99.90
15160;DHT22;7680;48.800;9.680;2024-01-15T02:23:32;-2.20;99.90
15160;DHT22;7680;48.800;9.680;2024-01-15T02:28:35;-2.20;99.90
15160;DHT22;7680;48.800;9.680;2024-01-15T02:33:38;-2.10;99.90
15160;DHT22;7680;48.800;9.680;2024-01-15T02:38:45;-2.00;99.90
15160;DHT22;7680;48.800;9.680;2024-01-15T02:43:48;-2.00;99.90
15160;DHT22;7680;48.800;9.680;2024-01-15T02:48:51;-2.00;99.90
15160;DHT22;7680;48.800;9.680;2024-01-15T02:53:55;-1.90;99.90
15160;DHT22;7680;48.800;9.680;2024-01-15T02:58:59;-1.90;99.90
15160;DHT22;7680;48.800;9.680;2024-01-15T03:04:02;-1.90;99.90
15160;DHT22;7680;48.800;9.680;2024-01-15T03:09:07;-1.80;99.90
15160;DHT22;7680;48.800;9.680;2024-01-15T03:14:10;-1.80;99.90
15160;DHT22;7680;48.800;9.680;2024-01-15T03:19:13;-1.80;99.90
15160;DHT22;7680;48.800;9.680;2024-01-15T03:24:18;-1.80;99.90
15160;DHT22;7680;48.800;9.680;2024-01-15T03:29:21;-1.80;99.90
15160;DHT22;7680;48.800;9.680;2024-01-15T03:34:24;-1.80;99.90
15160;DHT22;7680;48.800;9.680;2024-01-15T03:39:29;-1.70;99.90
15160;DHT22;7680;48.800;9.680;2024-01-15T03:44:32;-1.70;99.90
15160;DHT22;7680;48.800;9.680;2024-01-15T03:49:35;-1.70;99.90
15160;DHT22;7680;48.800;9.680;2024-01-15T03:54:40;-1.60;99.90
15160;DHT22;7680;48.800;9.680;2024-01-15T03:59:43;-1.60;99.90
15160;DHT22;7680;48.800;9.680;2024-01-15T04:04:49;-1.60;99.90
15160;DHT22;7680;48.800;9.680;2024-01-15T04:09:53;-1.60;99.90
15160;DHT22;7680;48.800;9.680;2024-01-15T04:14:57;-1.60;99.90
15160;DHT22;7680;48.800;9.680;2024-01-15T04:20:00;-1.50;99.90
15160;DHT22;7680;48.800;9.680;2024-01-15T04:25:05;-1.50;99.90
15160;DHT22;7680;48.800;9.680;2024-01-15T04:30:10;-1.60;99.90
15160;DHT22;7680;48.800;9.680;2024-01-15T04:35:14;-1.60;99.90
15160;DHT22;7680;48.800;9.680;2024-01-15T04:40:18;-1.60;99.90
15160;DHT22;7680;48.800;9.680;2024-01-15T04:45:21;-1.60;99.90
15160;DHT22;7680;48.800;9.680;2024-01-15T04:50:30;-1.60;99.90
15160;DHT22;7680;48.800;9.680;2024-01-15T04:55:34;-1.50;99.90
15160;DHT22;7680;48.800;9.680;2024-01-15T05:00:37;-1.60;99.90
15160;DHT22;7680;48.800;9.680;2024-01-15T05:05:41;-1.60;99.90
15160;DHT22;7680;48.800;9.680;2024-01-15T05:10:45;-1.50;99.90
15160;DHT22;7680;48.800;9.680;2024-01-15T05:15:48;-1.50;99.90
15160;DHT22;7680;48.800;9.680;2024-01-15T05:20:52;-1.40;99.90
15160;DHT22;7680;48.800;9.680;2024-01-15T05:25:56;-1.40;99.90
15160;DHT22;7680;48.800;9.680;2024-01-15T05:31:00;-1.40;99.90
15160;DHT22;7680;48.800;9.680;2024-01-15T05:36:04;-1.30;99.90
15160;DHT22;7680;48.800;9.680;2024-01-15T05:41:09;-1.30;99.90
15160;DHT22;7680;48.800;9.680;2024-01-15T05:46:12;-1.40;99.90
15160;DHT22;7680;48.800;9.680;2024-01-15T05:51:17;-1.40;99.90
15160;DHT22;7680;48.800;9.680;2024-01-15T05:56:21;-1.50;99.90
15160;DHT22;7680;48.800;9.680;2024-01-15T06:01:25;-1.40;99.90
15160;DHT22;7680;48.800;9.680;2024-01-15T06:06:29;-1.30;99.90
15160;DHT22;7680;48.800;9.680;2024-01-15T06:11:33;-1.30;99.90
15160;DHT22;7680;48.800;9.680;2024-01-15T06:16:37;-1.30;99.90
15160;DHT22;7680;48.800;9.680;2024-01-15T06:21:40;-1.30;99.90
15160;DHT22;7680;48.800;9.680;2024-01-15T06:26:46;-1.30;99.90
15160;DHT22;7680;48.800;9.680;2024-01-15T06:31:49;-1.30;99.90
15160;DHT22;7680;48.800;9.680;2024-01-15T06:36:52;-1.30;99.90
15160;DHT22;7680;48.800;9.680;2024-01-15T06:41:57;-1.40;99.90
15160;DHT22;7680;48.800;9.680;2024-01-15T06:47:00;-1.40;99.90
15160;DHT22;7680;48.800;9.680;2024-01-15T06:52:05;-1.50;99.90
15160;DHT22;7680;48.800;9.680;2024-01-15T06:57:10;-1.50;99.90
15160;DHT22;7680;48.800;9.680;2024-01-15T07:02:13;-1.50;99.90
15160;DHT22;7680;48.800;9.680;2024-01-15T07:07:16;-1.40;99.90
15160;DHT22;7680;48.800;9.680;2024-01-15T07:12:21;-1.40;99.90
15160;DHT22;7680;48.800;9.680;2024-01-15T07:17:24;-1.30;99.90
15160;DHT22;7680;48.800;9.680;2024-01-15T07:22:27;-1.30;99.90
15160;DHT22;7680;48.800;9.680;2024-01-15T07:27:32;-1.20;99.90
15160;DHT22;7680;48.800;9.680;2024-01-15T07:32:36;-1.10;99.90
15160;DHT22;7680;48.800;9.680;2024-01-15T07:37:39;-1.10;99.90
15160;DHT22;7680;48.800;9.680;2024-01-15T07:42:43;-1.00;99.90
15160;DHT22;7680;48.800;9.680;2024-01-15T07:47:47;-1.00;99.90
15160;DHT22;7680;48.800;9.680;2024-01-15T07:52:50;-0.90;99.90
15160;DHT22;7680;48.800;9.680;2024-01-15T07:57:56;-0.90;99.90
15160;DHT22;7680;48.800;9.680;2024-01-15T08:03:16;-0.90;99.90
15160;DHT22;7680;48.800;9.680;2024-01-15T08:08:19;-0.80;99.90
15160;DHT22;7680;48.800;9.680;2024-01-15T08:13:26;-0.70;99.90
15160;DHT22;7680;48.800;9.680;2024-01-15T08:18:30;-0.70;99.90
15160;DHT22;7680;48.800;9.680;2024-01-15T08:23:34;-0.60;99.90
15160;DHT22;7680;48.800;9.680;2024-01-15T08:28:39;-0.60;99.90
15160;DHT22;7680;48.800;9.680;2024-01-15T08:33:42;-0.50;99.90
15160;DHT22;7680;48.800;9.680;2024-01-15T08:38:45;-0.50;99.90
15160;DHT22;7680;48.800;9.680;2024-01-15T08:43:50;-0.40;99.90
15160;DHT22;7680;48.800;9.680;2024-01-15T08:48:54;-0.30;99.90
15160;DHT22;7680;48.800;9.680;2024-01-15T08:53:57;-0.30;99.90
15160;DHT22;7680;48.800;9.680;2024-01-15T08:59:02;-0.20;99.90
15160;DHT22;7680;48.800;9.680;2024-01-15T09:04:05;-0.20;99.90
15160;DHT22;7680;48.800;9.680;2024-01-15T09:09:09;-0.10;99.90
15160;DHT22;7680;48.800;9.680;2024-01-15T09:14:13;0.00;99.90
15160;DHT22;7680;48.800;9.680;2024-01-15T09:19:19;0.00;99.90
15160;DHT22;7680;48.800;9.680;2024-01-15T09:24:23;0.00;99.90
15160;DHT22;7680;48.800;9.680;2024-01-15T09:29:30;0.10;99.90
15160;DHT22;7680;48.800;9.680;2024-01-15T09:34:34;0.30;99.90
15160;DHT22;7680;48.800;9.680;2024-01-15T09:39:37;0.40;99.90
15160;DHT22;7680;48.800;9.680;2024-01-15T09:44:42;0.50;99.90
15160;DHT22;7680;48.800;9.680;2024-01-15T09:49:45;0.60;99.90
15160;DHT22;7680;48.800;9.680;2024-01-15T09:54:49;0.60;99.90
15160;DHT22;7680;48.800;9.680;2024-01-15T09:59:55;0.80;99.90
15160;DHT22;7680;48.800;9.680;2024-01-15T10:05:00;0.90;99.90
15160;DHT22;7680;48.800;9.680;2024-01-15T10:10:05;1.00;99.90
15160;DHT22;7680;48.800;9.680;2024-01-15T10:15:11;1.00;99.90
15160;DHT22;7680;48.800;9.680;2024-01-15T10:20:15;1.20;99.90
15160;DHT22;7680;48.800;9.680;2024-01-15T10:25:18;1.20;99.90
15160;DHT22;7680;48.800;9.680;2024-01-15T10:30:28;1.30;99.90
15160;DHT22;7680;48.800;9.680;2024-01-15T10:35:32;1.30;99.90
15160;DHT22;7680;48.800;9.680;2024-01-15T10:40:36;1.30;99.90
15160;DHT22;7680;48.800;9.680;2024-01-15T10:45:42;1.30;99.90
15160;DHT22;7680;48.800;9.680;2024-01-15T10:50:47;1.30;99.90
15160;DHT22;7680;48.800;9.680;2024-01-15T10:55:50;1.50;99.90
15160;DHT22;7680;48.800;9.680;2024-01-15T11:00:56;1.80;99.90
15160;DHT22;7680;48.800;9.680;2024-01-15T11:05:59;1.70;99.90
15160;DHT22;7680;48.800;9.680;2024-01-15T11:11:03;1.60;99.90
15160;DHT22;7680;48.800;9.680;2024-01-15T11:16:09;1.70;99.90
15160;DHT22;7680;48.800;9.680;2024-01-15T11:21:23;1.60;99.90
15160;DHT22;7680;48.800;9.680;2024-01-15T11:26:33;1.50;99.90
15160;DHT22;7680;48.800;9.680;2024-01-15T11:31:58;1.60;99.90
15160;DHT22;7680;48.800;9.680;2024-01-15T11:37:03;1.70;99.90
15160;DHT22;7680;48.800;9.680;2024-01-15T11:42:06;1.50;99.90
15160;DHT22;7680;48.800;9.680;2024-01-15T11:47:12;1.50;99.90
15160;DHT22;7680;48.800;9.680;2024-01-15T11:52:18;1.50;99.90
15160;DHT22;7680;48.800;9.680;2024-01-15T11:57:40;1.70;99.90
15160;DHT22;7680;48.800;9.680;2024-01-15T12:02:48;1.40;99.90
15160;DHT22;7680;48.800;9.680;2024-01-15T12:07:52;1.20;99.90
15160;DHT22;7680;48.800;9.680;2024-01-15T12:12:59;1.20;99.90
15160;DHT22;7680;48.800;9.680;2024-01-15T12:18:05;1.10;99.90
15160;DHT22;7680;48.800;9.680;2024-01-15T12:23:09;1.10;99.90
15160;DHT22;7680;48.800;9.680;2024-01-15T12:28:13;1.10;99.90
15160;DHT22;7680;48.800;9.680;2024-01-15T12:33:17;1.10;99.90
15160;DHT22;7680;48.800;9.680;2024-01-15T12:38:22;1.30;99.90
15160;DHT22;7680;48.800;9.680;2024-01-15T12:43:25;1.20;99.90
15160;DHT22;7680;48.800;9.680;2024-01-15T12:48:29;1.10;99.90
15160;DHT22;7680;48.800;9.680;2024-01-15T12:53:33;1.10;99.90
15160;DHT22;7680;48.800;9.680;2024-01-15T12:58:36;1.20;99.90
15160;DHT22;7680;48.800;9.680;2024-01-15T13:03:41;1.20;99.90
15160;DHT22;7680;48.800;9.680;2024-01-15T13:08:44;1.00;99.90
15160;DHT22;7680;48.800;9.680;2024-01-15T13:13:48;0.80;99.90
15160;DHT22;7680;48.800;9.680;2024-01-15T13:18:52;0.80;99.90
15160;DHT22;7680;48.800;9.680;2024-01-15T13:23:56;0.60;99.90
15160;DHT22;7680;48.800;9.680;2024-01-15T13:28:59;0.60;99.90
15160;DHT22;7680;48.800;9.680;2024-01-15T13:34:04;0.70;99.90
15160;DHT22;7680;48.800;9.680;2024-01-15T13:39:08;0.80;99.90
15160;DHT22;7680;48.800;9.680;2024-01-15T13:44:12;0.80;99.90
15160;DHT22;7680;48.800;9.680;2024-01-15T13:49:16;0.80;99.90
15160;DHT22;7680;48.800;9.680;2024-01-15T13:54:20;0.90;99.90
15160;DHT22;7680;48.800;9.680;2024-01-15T13:59:28;0.80;99.90
15160;DHT22;7680;48.800;9.680;2024-01-15T14:04:35;0.70;99.90
15160;DHT22;7680;48.800;9.680;2024-01-15T14:09:38;0.60;99.90
15160;DHT22;7680;48.800;9.680;2024-01-15T14:14:41;0.70;99.90
15160;DHT22;7680;48.800;9.680;2024-01-15T14:19:46;0.70;99.90
15160;DHT22;7680;48.800;9.680;2024-01-15T14:24:49;0.70;99.90
15160;DHT22;7680;48.800;9.680;2024-01-15T14:29:53;0.60;99.90
15160;DHT22;7680;48.800;9.680;2024-01-15T14:34:57;0.60;99.90
15160;DHT22;7680;48.800;9.680;2024-01-15T14:40:00;0.60;99.90
15160;DHT22;7680;48.800;9.680;2024-01-15T14:45:05;0.60;99.90
15160;DHT22;7680;48.800;9.680;2024-01-15T14:50:15;0.50;99.90
15160;DHT22;7680;48.800;9.680;2024-01-15T14:55:19;0.50;99.90
15160;DHT22;7680;48.800;9.680;2024-01-15T15:00:24;0.50;99.90
15160;DHT22;7680;48.800;9.680;2024-01-15T15:05:29;0.50;99.90
15160;DHT22;7680;48.800;9.680;2024-01-15T15:10:33;0.40;99.90
15160;DHT22;7680;48.800;9.680;2024-01-15T15:15:36;0.50;99.90
15160;DHT22;7680;48.800;9.680;2024-01-15T15:20:41;0.50;99.90
15160;DHT22;7680;48.800;9.680;2024-01-15T15:25:44;0.40;99.90
15160;DHT22;7680;48.800;9.680;2024-01-15T15:30:47;0.30;99.90
15160;DHT22;7680;48.800;9.680;2024-01-15T15:35:52;0.20;99.90
15160;DHT22;7680;48.800;9.680;2024-01-15T15:40:55;0.20;99.90
15160;DHT22;7680;48.800;9.680;2024-01-15T15:45:59;0.20;99.90
15160;DHT22;7680;48.800;9.680;2024-01-15T15:51:04;0.30;99.90
15160;DHT22;7680;48.800;9.680;2024-01-15T15:56:07;0.30;99.90
15160;DHT22;7680;48.800;9.680;2024-01-15T16:01:12;0.20;99.90
15160;DHT22;7680;48.800;9.680;2024-01-15T16:06:16;0.10;99.90
15160;DHT22;7680;48.800;9.680;2024-01-15T16:11:19;0.10;99.90
15160;DHT22;7680;48.800;9.680;2024-01-15T16:16:23;0.00;99.90
15160;DHT22;7680;48.800;9.680;2024-01-15T16:21:47;-0.10;99.90
15160;DHT22;7680;48.800;9.680;2024-01-15T16:27:10;-0.10;99.90
15160;DHT22;7680;48.800;9.680;2024-01-15T16:32:14;-0.10;99.90
15160;DHT22;7680;48.800;9.680;2024-01-15T16:37:19;-0.20;99.90
15160;DHT22;7680;48.800;9.680;2024-01-15T16:42:22;-0.20;99.90
15160;DHT22;7680;48.800;9.680;2024-01-15T16:47:25;-0.20;99.90
15160;DHT22;7680;48.800;9.680;2024-01-15T16:52:30;-0.20;99.90
15160;DHT22;7680;48.800;9.680;2024-01-15T16:57:33;-0.20;99.90
15160;DHT22;7680;48.800;9.680;2024-01-15T17:02:37;-0.40;99.90
15160;DHT22;7680;48.800;9.680;2024-01-15T17:07:42;-0.50;99.90
15160;DHT22;7680;48.800;9.680;2024-01-15T17:12:45;-0.70;99.90
15160;DHT22;7680;48.800;9.680;2024-01-15T17:17:49;-0.70;99.90
15160;DHT22;7680;48.800;9.680;2024-01-15T17:22:54;-0.70;99.90
15160;DHT22;7680;48.800;9.680;2024-01-15T17:27:58;-0.80;99.90
15160;DHT22;7680;48.800;9.680;2024-01-15T17:33:03;-0.90;99.90
15160;DHT22;7680;48.800;9.680;2024-01-15T17:38:08;-0.90;99.90
15160;DHT22;7680;48.800;9.680;2024-01-15T17:43:11;-1.00;99.90
15160;DHT22;7680;48.800;9.680;2024-01-15T17:48:15;-1.00;99.90
15160;DHT22;7680;48.800;9.680;2024-01-15T17:53:19;-0.90;99.90
15160;DHT22;7680;48.800;9.680;2024-01-15T17:58:22;-0.80;99.90
15160;DHT22;7680;48.800;9.680;2024-01-15T18:03:25;-0.70;99.90
15160;DHT22;7680;48.800;9.680;2024-01-15T18:08:30;-0.60;99.90
15160;DHT22;7680;48.800;9.680;2024-01-15T18:13:33;-0.60;99.90
15160;DHT22;7680;48.800;9.680;2024-01-15T18:18:36;-0.50;99.90
15160;DHT22;7680;48.800;9.680;2024-01-15T18:23:41;-0.40;99.90
15160;DHT22;7680;48.800;9.680;2024-01-15T18:28:44;-0.50;99.90
15160;DHT22;7680;48.800;9.680;2024-01-15T18:33:48;-0.40;99.90
15160;DHT22;7680;48.800;9.680;2024-01-15T18:38:52;-0.40;99.90
15160;DHT22;7680;48.800;9.680;2024-01-15T18:43:56;-0.40;99.90
15160;DHT22;7680;48.800;9.680;2024-01-15T18:48:59;-0.30;99.90
15160;DHT22;7680;48.800;9.680;2024-01-15T18:54:03;-0.30;99.90
15160;DHT22;7680;48.800;9.680;2024-01-15T18:59:07;-0.40;99.90
15160;DHT22;7680;48.800;9.680;2024-01-15T19:04:10;-0.40;99.90
15160;DHT22;7680;48.800;9.680;2024-01-15T19:09:15;-0.40;99.90
15160;DHT22;7680;48.800;9.680;2024-01-15T19:14:18;-0.50;99.90
15160;DHT22;7680;48.800;9.680;2024-01-15T19:19:21;-0.60;99.90
15160;DHT22;7680;48.800;9.680;2024-01-15T19:24:26;-0.50;99.90
15160;DHT22;7680;48.800;9.680;2024-01-15T19:29:29;-0.50;99.90
15160;DHT22;7680;48.800;9.680;2024-01-15T19:34:32;-0.50;99.90
15160;DHT22;7680;48.800;9.680;2024-01-15T19:39:40;-0.50;99.90
15160;DHT22;7680;48.800;9.680;2024-01-15T19:44:43;-0.50;99.90
15160;DHT22;7680;48.800;9.680;2024-01-15T19:49:47;-0.50;99.90
15160;DHT22;7680;48.800;9.680;2024-01-15T19:54:51;-0.50;99.90
15160;DHT22;7680;48.800;9.680;2024-01-15T19:59:54;-0.50;99.90
15160;DHT22;7680;48.800;9.680;2024-01-15T20:04:58;-0.50;99.90
15160;DHT22;7680;48.800;9.680;2024-01-15T20:10:02;-0.50;99.90
15160;DHT22;7680;48.800;9.680;2024-01-15T20:15:07;-0.60;99.90
15160;DHT22;7680;48.800;9.680;2024-01-15T20:20:10;-0.50;99.90
15160;DHT22;7680;48.800;9.680;2024-01-15T20:25:15;-0.50;99.90
15160;DHT22;7680;48.800;9.680;2024-01-15T20:30:18;-0.50;99.90
15160;DHT22;7680;48.800;9.680;2024-01-15T20:35:23;-0.50;99.90
15160;DHT22;7680;48.800;9.680;2024-01-15T20:40:27;-0.50;99.90
15160;DHT22;7680;48.800;9.680;2024-01-15T20:45:34;-0.50;99.90
15160;DHT22;7680;48.800;9.680;2024-01-15T20:50:37;-0.60;99.90
15160;DHT22;7680;48.800;9.680;2024-01-15T20:55:42;-0.60;99.90
15160;DHT22;7680;48.800;9.680;2024-01-15T21:00:45;-0.50;99.90
15160;DHT22;7680;48.800;9.680;2024-01-15T21:05:48;-0.40;99.90
15160;DHT22;7680;48.800;9.680;2024-01-15T21:10:53;-0.50;99.90
15160;DHT22;7680;48.800;9.680;2024-01-15T21:15:56;-0.50;99.90
15160;DHT22;7680;48.800;9.680;2024-01-15T21:21:00;-0.40;99.90
15160;DHT22;7680;48.800;9.680;2024-01-15T21:26:04;-0.40;99.90
15160;DHT22;7680;48.800;9.680;2024-01-15T21:31:07;-0.20;99.90
15160;DHT22;7680;48.800;9.680;2024-01-15T21:36:11;-0.30;99.90
15160;DHT22;7680;48.800;9.680;2024-01-15T21:41:17;-0.40;99.90
15160;DHT22;7680;48.800;9.680;2024-01-15T21:46:22;-0.40;99.90
15160;DHT22;7680;48.800;9.680;2024-01-15T21:51:26;-0.40;99.90
15160;DHT22;7680;48.800;9.680;2024-01-15T21:56:31;-0.40;99.90
15160;DHT22;7680;48.800;9.680;2024-01-15T22:01:34;-0.40;99.90
15160;DHT22;7680;48.800;9.680;2024-01-15T22:06:37;-0.50;99.90
15160;DHT22;7680;48.800;9.680;2024-01-15T22:11:42;-0.50;99.90
15160;DHT22;7680;48.800;9.680;2024-01-15T22:16:46;-0.50;99.90
15160;DHT22;7680;48.800;9.680;2024-01-15T22:21:49;-0.40;99.90
15160;DHT22;7680;48.800;9.680;2024-01-15T22:26:54;-0.60;99.90
15160;DHT22;7680;48.800;9.680;2024-01-15T22:31:57;-0.50;99.90
15160;DHT22;7680;48.800;9.680;2024-01-15T22:37:00;-0.50;99.90
15160;DHT22;7680;48.800;9.680;2024-01-15T22:42:05;-0.50;99.90
15160;DHT22;7680;48.800;9.680;2024-01-15T22:47:09;-0.40;99.90
15160;DHT22;7680;48.800;9.680;2024-01-15T22:52:12;-0.40;99.90
15160;DHT22;7680;48.800;9.680;2024-01-15T22:57:17;-0.40;99.90
15160;DHT22;7680;48.800;9.680;2024-01-15T23:02:21;-0.40;99.90
15160;DHT22;7680;48.800;9.680;2024-01-15T23:07:25;-0.50;99.90
15160;DHT22;7680;48.800;9.680;2024-01-15T23:12:33;-0.60;99.90
15160;DHT22;7680;48.800;9.680;2024-01-15T23:17:36;-0.50;99.90
15160;DHT22;7680;48.800;9.680;2024-01-15T23:22:39;-0.60;99.90
15160;DHT22;7680;48.800;9.680;2024-01-15T23:27:44;-0.60;99.90
15160;DHT22;7680;48.800;9.680;2024-01-15T23:32:47;-0.60;99.90
15160;DHT22;7680;48.800;9.680;2024-01-15T23:37:51;-0.60;99.90
15160;DHT22;7680;48.800;9.680;2024-01-15T23:42:55;-0.60;99.90
15160;DHT22;7680;48.800;9.680;2024-01-15T23:47:58;-0.70;99.90
15160;DHT22;7680;48.800;9.680;2024-01-15T23:53:02;-0.70;99.90
15160;DHT22;7680;48.800;9.680;2024-01-15T23:58:06;-0.70;99.90
